หน้าหลัก
METAR-TAF:

METAR-TAF

ท่าอากาศยาน :

Hall Beach, นูนาวุต, แคนาดา

ละติจูด: 68-47N, ลองจิจูด: 081-15W, ความสูง: 8 ม.

การสังเกตสภาพอากาศปัจจุบัน

รายงานได้ทำขึ้นเมื่อ 58 นาทีที่แล้ว ณ เวลา 06:00 UTC
ลม 11 นอตจากตะวันตก/ตะวันตกเฉียงเหนือ
อุณหภูมิ -32°C
ความชื้น 67%
ความกดอากาศ 1012 hPa
ทัศนวิสัย: 14.5 กม.
ท้องฟ้าแจ่มใส

METAR: CYUX 200600Z AUTO 30011KT 9SM CLR M32/M36 A2987 RMK SLP117

เวลา: 02:58 (06:58 UTC)

การพยากรณ์

รายงานได้ทำขึ้นเมื่อ 18 นาทีที่แล้ว ณ เวลา 06:40 UTC
การพยากรณ์มีผลตั้งแต่วันที่ 20 ณ เวลา 07 UTC จนถึงวันที่ 20 ณ เวลา 19 UTC
ลม 12 นอตจากตะวันตก/ตะวันตกเฉียงเหนือ
ทัศนวิสัย: 10 กม.
ท้องฟ้าแจ่มใส
ชั่วคราว
ตั้งแต่วันที่ 20 ณ เวลา 07 UTC จนถึงวันที่ 20 ณ เวลา 15 UTC
ทัศนวิสัย: 8.0 กม.
ผลึกน้ำแข็ง, หมอกน้ำค้าง

TAF: CYUX 200640Z 2007/2019 30012KT P6SM SKC TEMPO 2007/2015 5SM IC BR RMK FCST BASED ON AUTO OBS. NXT FCST BY 201300Z

สังเกตการณ์สภาพอากาศและพยากรณ์อากาศของสนามบินมากกว่า 4000 แห่ง (รายงาน METAR และ TAF).

สถานีที่ดูได้จะแสดงไว้ด้วยจุดสีเหลืองและสีแดงบนแผนที่.

เลื่อนเมาส์ไปเหนือจุดเพื่อดูชื่อสถานี.

แล้วคลิกเพื่อดูสังเกตการณ์และการพยากรณ์สภาพอากาศ.

ในการเปลี่ยนแผนที่: คลิกที่ปุ่มสีเขียวที่มีกากบาทสีดำเพื่อซูมเข้า; ที่ปุ่มสีเขียวที่มีขีดเพื่อซูมออก; หรือที่ลูกศรสีเขียวเพื่อไปยังแผนที่ที่อยู่ติดกัน.


METAR-TAF: